sensor_id;sensor_type;location;lat;lon;timestamp;pressure;altitude;pressure_sealevel;temperature;humidity
41531;BME280;58990;46.284;13.126;2022-09-24T00:00:44;99518.84;;;14.43;66.94
41531;BME280;58990;46.284;13.126;2022-09-24T00:03:10;99518.84;;;14.43;66.42
41531;BME280;58990;46.284;13.126;2022-09-24T00:05:37;99521.06;;;14.40;66.47
41531;BME280;58990;46.284;13.126;2022-09-24T00:08:05;99515.56;;;14.41;66.75
41531;BME280;58990;46.284;13.126;2022-09-24T00:10:35;99523.69;;;14.40;66.79
41531;BME280;58990;46.284;13.126;2022-09-24T00:13:00;99514.97;;;14.39;66.74
41531;BME280;58990;46.284;13.126;2022-09-24T00:15:26;99527.16;;;14.40;66.32
41531;BME280;58990;46.284;13.126;2022-09-24T00:17:51;99520.44;;;14.38;66.33
41531;BME280;58990;46.284;13.126;2022-09-24T00:20:17;99520.03;;;14.41;66.16
41531;BME280;58990;46.284;13.126;2022-09-24T00:22:42;99508.50;;;14.49;66.31
41531;BME280;58990;46.284;13.126;2022-09-24T00:25:07;99510.91;;;14.43;66.93
41531;BME280;58990;46.284;13.126;2022-09-24T00:27:53;99498.72;;;14.42;66.90
41531;BME280;58990;46.284;13.126;2022-09-24T00:30:18;99494.88;;;14.52;66.41
41531;BME280;58990;46.284;13.126;2022-09-24T00:32:43;99498.94;;;14.47;66.56
41531;BME280;58990;46.284;13.126;2022-09-24T00:35:09;99494.84;;;14.38;66.60
41531;BME280;58990;46.284;13.126;2022-09-24T00:37:35;99497.91;;;14.35;67.80
41531;BME280;58990;46.284;13.126;2022-09-24T00:40:00;99488.97;;;14.36;67.45
41531;BME280;58990;46.284;13.126;2022-09-24T00:42:26;99488.13;;;14.29;67.53
41531;BME280;58990;46.284;13.126;2022-09-24T00:44:54;99484.91;;;14.34;67.69
41531;BME280;58990;46.284;13.126;2022-09-24T00:47:25;99490.38;;;14.32;67.77
41531;BME280;58990;46.284;13.126;2022-09-24T00:50:02;99490.97;;;14.34;67.44
41531;BME280;58990;46.284;13.126;2022-09-24T00:52:31;99478.41;;;14.36;66.86
41531;BME280;58990;46.284;13.126;2022-09-24T00:54:56;99478.81;;;14.46;67.23
41531;BME280;58990;46.284;13.126;2022-09-24T00:57:22;99473.94;;;14.43;68.00
41531;BME280;58990;46.284;13.126;2022-09-24T00:59:48;99474.94;;;14.42;67.84
41531;BME280;58990;46.284;13.126;2022-09-24T01:02:14;99480.00;;;14.30;66.98
41531;BME280;58990;46.284;13.126;2022-09-24T01:04:39;99477.16;;;14.25;66.55
41531;BME280;58990;46.284;13.126;2022-09-24T01:07:05;99479.59;;;14.27;66.73
41531;BME280;58990;46.284;13.126;2022-09-24T01:09:30;99474.31;;;14.27;67.58
41531;BME280;58990;46.284;13.126;2022-09-24T01:15:17;99471.09;;;14.38;68.39
41531;BME280;58990;46.284;13.126;2022-09-24T01:17:55;99466.44;;;14.40;68.72
41531;BME280;58990;46.284;13.126;2022-09-24T01:23:35;99460.50;;;14.25;68.79
41531;BME280;58990;46.284;13.126;2022-09-24T01:32:04;99463.72;;;14.13;69.36
41531;BME280;58990;46.284;13.126;2022-09-24T01:34:44;99461.31;;;14.19;69.23
41531;BME280;58990;46.284;13.126;2022-09-24T01:37:13;99464.59;;;14.34;69.45
41531;BME280;58990;46.284;13.126;2022-09-24T01:39:41;99457.28;;;14.36;68.81
41531;BME280;58990;46.284;13.126;2022-09-24T01:42:09;99448.53;;;14.36;67.93
41531;BME280;58990;46.284;13.126;2022-09-24T01:44:37;99456.06;;;14.25;69.35
41531;BME280;58990;46.284;13.126;2022-09-24T01:47:05;99460.09;;;14.21;68.73
41531;BME280;58990;46.284;13.126;2022-09-24T01:49:31;99462.53;;;14.16;69.63
41531;BME280;58990;46.284;13.126;2022-09-24T01:52:00;99464.72;;;14.12;69.93
41531;BME280;58990;46.284;13.126;2022-09-24T01:54:36;99459.66;;;14.11;70.61
41531;BME280;58990;46.284;13.126;2022-09-24T01:59:58;99456.44;;;14.29;71.15
41531;BME280;58990;46.284;13.126;2022-09-24T02:02:34;99452.19;;;14.28;70.85
41531;BME280;58990;46.284;13.126;2022-09-24T02:05:09;99453.00;;;14.28;71.63
41531;BME280;58990;46.284;13.126;2022-09-24T02:07:50;99447.94;;;14.27;70.87
41531;BME280;58990;46.284;13.126;2022-09-24T02:10:19;99440.81;;;14.27;70.91
41531;BME280;58990;46.284;13.126;2022-09-24T02:12:49;99440.22;;;14.25;72.18
41531;BME280;58990;46.284;13.126;2022-09-24T02:15:21;99434.50;;;14.22;72.20
41531;BME280;58990;46.284;13.126;2022-09-24T02:17:54;99449.53;;;14.21;72.99
41531;BME280;58990;46.284;13.126;2022-09-24T02:20:22;99451.94;;;14.09;73.38
41531;BME280;58990;46.284;13.126;2022-09-24T02:22:50;99444.22;;;14.01;73.54
41531;BME280;58990;46.284;13.126;2022-09-24T02:25:24;99438.94;;;14.01;73.55
41531;BME280;58990;46.284;13.126;2022-09-24T02:27:52;99439.72;;;14.02;73.82
41531;BME280;58990;46.284;13.126;2022-09-24T02:30:18;99431.44;;;14.11;72.85
41531;BME280;58990;46.284;13.126;2022-09-24T02:32:43;99432.06;;;14.13;73.68
41531;BME280;58990;46.284;13.126;2022-09-24T02:35:10;99429.63;;;14.12;73.72
41531;BME280;58990;46.284;13.126;2022-09-24T02:37:39;99433.25;;;14.04;74.36
41531;BME280;58990;46.284;13.126;2022-09-24T02:40:06;99423.72;;;14.17;72.92
41531;BME280;58990;46.284;13.126;2022-09-24T02:42:32;99420.69;;;14.06;74.28
41531;BME280;58990;46.284;13.126;2022-09-24T02:44:58;99415.38;;;14.00;73.94
41531;BME280;58990;46.284;13.126;2022-09-24T02:47:25;99417.16;;;13.92;74.28
41531;BME280;58990;46.284;13.126;2022-09-24T02:49:51;99415.38;;;13.93;74.43
41531;BME280;58990;46.284;13.126;2022-09-24T02:52:17;99414.13;;;13.89;74.93
41531;BME280;58990;46.284;13.126;2022-09-24T02:54:43;99412.91;;;13.91;74.78
41531;BME280;58990;46.284;13.126;2022-09-24T02:57:09;99405.59;;;13.87;73.69
41531;BME280;58990;46.284;13.126;2022-09-24T02:59:34;99395.47;;;13.90;73.93
41531;BME280;58990;46.284;13.126;2022-09-24T03:02:00;99400.75;;;13.90;73.39
41531;BME280;58990;46.284;13.126;2022-09-24T03:04:25;99401.13;;;13.87;72.55
41531;BME280;58990;46.284;13.126;2022-09-24T03:06:52;99393.63;;;13.84;72.00
41531;BME280;58990;46.284;13.126;2022-09-24T03:09:18;99395.03;;;13.87;71.58
41531;BME280;58990;46.284;13.126;2022-09-24T03:11:43;99397.22;;;13.76;70.91
41531;BME280;58990;46.284;13.126;2022-09-24T03:14:09;99393.03;;;13.89;71.44
41531;BME280;58990;46.284;13.126;2022-09-24T03:16:34;99395.88;;;13.94;71.57
41531;BME280;58990;46.284;13.126;2022-09-24T03:19:00;99391.44;;;14.01;71.14
41531;BME280;58990;46.284;13.126;2022-09-24T03:21:25;99378.84;;;14.03;70.69
41531;BME280;58990;46.284;13.126;2022-09-24T03:23:51;99377.63;;;13.99;72.03
41531;BME280;58990;46.284;13.126;2022-09-24T03:26:16;99378.84;;;14.03;70.90
41531;BME280;58990;46.284;13.126;2022-09-24T03:28:42;99374.38;;;13.97;71.74
41531;BME280;58990;46.284;13.126;2022-09-24T03:31:11;99382.06;;;13.92;72.62
41531;BME280;58990;46.284;13.126;2022-09-24T03:33:43;99376.16;;;13.90;72.81
41531;BME280;58990;46.284;13.126;2022-09-24T03:36:20;99374.34;;;13.84;72.83
41531;BME280;58990;46.284;13.126;2022-09-24T03:38:48;99376.78;;;13.85;72.37
41531;BME280;58990;46.284;13.126;2022-09-24T03:41:14;99371.91;;;13.82;72.47
41531;BME280;58990;46.284;13.126;2022-09-24T03:43:41;99392.19;;;13.82;72.01
41531;BME280;58990;46.284;13.126;2022-09-24T03:46:07;99390.16;;;13.84;71.10
41531;BME280;58990;46.284;13.126;2022-09-24T03:48:35;99386.31;;;13.86;70.99
41531;BME280;58990;46.284;13.126;2022-09-24T03:51:09;99378.81;;;13.90;71.10
41531;BME280;58990;46.284;13.126;2022-09-24T03:53:35;99387.34;;;13.92;71.54
41531;BME280;58990;46.284;13.126;2022-09-24T03:56:01;99393.81;;;13.83;71.88
41531;BME280;58990;46.284;13.126;2022-09-24T03:58:28;99397.03;;;13.71;71.85
41531;BME280;58990;46.284;13.126;2022-09-24T04:00:55;99393.38;;;13.72;71.56
41531;BME280;58990;46.284;13.126;2022-09-24T04:03:22;99393.00;;;13.75;71.73
41531;BME280;58990;46.284;13.126;2022-09-24T04:05:48;99393.38;;;13.79;72.02
41531;BME280;58990;46.284;13.126;2022-09-24T04:08:16;99403.53;;;13.75;71.36
41531;BME280;58990;46.284;13.126;2022-09-24T04:10:44;99395.00;;;13.73;71.43
41531;BME280;58990;46.284;13.126;2022-09-24T04:13:09;99409.81;;;13.74;71.81
41531;BME280;58990;46.284;13.126;2022-09-24T04:15:34;99405.53;;;13.73;72.31
41531;BME280;58990;46.284;13.126;2022-09-24T04:18:00;99411.81;;;13.72;71.81
41531;BME280;58990;46.284;13.126;2022-09-24T04:20:27;99413.06;;;13.76;72.37
41531;BME280;58990;46.284;13.126;2022-09-24T04:22:55;99411.28;;;13.84;72.43
41531;BME280;58990;46.284;13.126;2022-09-24T04:25:23;99415.69;;;13.76;72.29
41531;BME280;58990;46.284;13.126;2022-09-24T04:27:54;99414.84;;;13.62;72.28
41531;BME280;58990;46.284;13.126;2022-09-24T04:30:20;99408.59;;;13.70;72.08
41531;BME280;58990;46.284;13.126;2022-09-24T04:32:45;99397.84;;;13.72;72.57
41531;BME280;58990;46.284;13.126;2022-09-24T04:35:11;99393.38;;;13.72;73.03
41531;BME280;58990;46.284;13.126;2022-09-24T04:37:36;99396.81;;;13.66;73.75
41531;BME280;58990;46.284;13.126;2022-09-24T04:40:05;99386.03;;;13.61;73.99
41531;BME280;58990;46.284;13.126;2022-09-24T04:42:40;99392.09;;;13.61;73.61
41531;BME280;58990;46.284;13.126;2022-09-24T04:45:06;99385.41;;;13.59;73.28
41531;BME280;58990;46.284;13.126;2022-09-24T04:47:33;99382.38;;;13.55;72.05
41531;BME280;58990;46.284;13.126;2022-09-24T04:49:58;99378.53;;;13.58;71.99
41531;BME280;58990;46.284;13.126;2022-09-24T04:52:26;99376.69;;;13.58;71.73
41531;BME280;58990;46.284;13.126;2022-09-24T04:54:54;99373.84;;;13.60;72.18
41531;BME280;58990;46.284;13.126;2022-09-24T04:57:22;99380.75;;;13.61;70.73
41531;BME280;58990;46.284;13.126;2022-09-24T04:59:47;99387.03;;;13.60;70.62
41531;BME280;58990;46.284;13.126;2022-09-24T05:02:13;99378.53;;;13.58;70.57
41531;BME280;58990;46.284;13.126;2022-09-24T05:04:38;99378.91;;;13.55;70.13
41531;BME280;58990;46.284;13.126;2022-09-24T05:07:04;99382.38;;;13.55;70.03
41531;BME280;58990;46.284;13.126;2022-09-24T05:09:29;99378.34;;;13.66;69.62
41531;BME280;58990;46.284;13.126;2022-09-24T05:11:58;99384.66;;;13.78;70.99
41531;BME280;58990;46.284;13.126;2022-09-24T05:14:24;99386.09;;;13.74;71.15
41531;BME280;58990;46.284;13.126;2022-09-24T05:16:50;99388.09;;;13.72;71.02
41531;BME280;58990;46.284;13.126;2022-09-24T05:19:16;99376.31;;;13.68;71.86
41531;BME280;58990;46.284;13.126;2022-09-24T05:21:41;99378.34;;;13.66;71.77
41531;BME280;58990;46.284;13.126;2022-09-24T05:24:07;99381.59;;;13.68;72.17
41531;BME280;58990;46.284;13.126;2022-09-24T05:26:32;99392.94;;;13.62;71.55
41531;BME280;58990;46.284;13.126;2022-09-24T05:29:18;99395.56;;;13.62;71.46
41531;BME280;58990;46.284;13.126;2022-09-24T05:31:43;99387.88;;;13.67;71.79
41531;BME280;58990;46.284;13.126;2022-09-24T05:34:09;99384.44;;;13.73;72.18
41531;BME280;58990;46.284;13.126;2022-09-24T05:36:34;99382.44;;;13.75;71.83
41531;BME280;58990;46.284;13.126;2022-09-24T05:39:00;99396.81;;;13.66;71.88
41531;BME280;58990;46.284;13.126;2022-09-24T05:41:26;99394.56;;;13.70;71.95
41531;BME280;58990;46.284;13.126;2022-09-24T05:43:51;99393.19;;;13.80;70.95
41531;BME280;58990;46.284;13.126;2022-09-24T05:46:17;99399.50;;;13.86;70.65
41531;BME280;58990;46.284;13.126;2022-09-24T05:48:42;99397.91;;;13.92;70.40
41531;BME280;58990;46.284;13.126;2022-09-24T05:51:07;99405.56;;;13.80;71.38
41531;BME280;58990;46.284;13.126;2022-09-24T05:53:33;99414.72;;;13.84;71.75
41531;BME280;58990;46.284;13.126;2022-09-24T05:55:59;99416.56;;;13.84;71.92
41531;BME280;58990;46.284;13.126;2022-09-24T05:58:24;99414.13;;;13.82;72.07
41531;BME280;58990;46.284;13.126;2022-09-24T06:00:50;99412.28;;;13.83;72.15
41531;BME280;58990;46.284;13.126;2022-09-24T06:03:17;99415.50;;;13.85;71.24
41531;BME280;58990;46.284;13.126;2022-09-24T06:05:47;99427.47;;;13.80;71.23
41531;BME280;58990;46.284;13.126;2022-09-24T06:08:13;99414.72;;;13.84;71.36
41531;BME280;58990;46.284;13.126;2022-09-24T06:10:40;99415.75;;;13.90;72.03
41531;BME280;58990;46.284;13.126;2022-09-24T06:13:07;99419.81;;;13.92;72.34
41531;BME280;58990;46.284;13.126;2022-09-24T06:15:32;99410.28;;;13.98;72.20
41531;BME280;58990;46.284;13.126;2022-09-24T06:18:00;99408.50;;;14.05;72.16
41531;BME280;58990;46.284;13.126;2022-09-24T06:20:25;99405.66;;;14.07;72.01
41531;BME280;58990;46.284;13.126;2022-09-24T06:22:54;99403.22;;;14.12;72.13
41531;BME280;58990;46.284;13.126;2022-09-24T06:25:20;99408.31;;;14.13;72.07
41531;BME280;58990;46.284;13.126;2022-09-24T06:27:55;99411.53;;;14.16;71.76
41531;BME280;58990;46.284;13.126;2022-09-24T06:33:07;99406.91;;;14.24;70.72
41531;BME280;58990;46.284;13.126;2022-09-24T06:35:34;99414.63;;;14.26;70.70
41531;BME280;58990;46.284;13.126;2022-09-24T06:38:01;99410.97;;;14.27;71.67
41531;BME280;58990;46.284;13.126;2022-09-24T06:40:27;99423.97;;;14.28;71.14
41531;BME280;58990;46.284;13.126;2022-09-24T06:42:52;99421.53;;;14.40;70.14
41531;BME280;58990;46.284;13.126;2022-09-24T06:45:21;99428.03;;;14.38;69.72
41531;BME280;58990;46.284;13.126;2022-09-24T06:47:54;99429.25;;;14.42;69.09
41531;BME280;58990;46.284;13.126;2022-09-24T06:50:22;99436.53;;;14.33;70.03
41531;BME280;58990;46.284;13.126;2022-09-24T06:52:47;99435.72;;;14.26;71.02
41531;BME280;58990;46.284;13.126;2022-09-24T06:55:13;99446.13;;;14.41;69.95
41531;BME280;58990;46.284;13.126;2022-09-24T06:57:39;99448.75;;;14.47;68.92
41531;BME280;58990;46.284;13.126;2022-09-24T07:00:05;99452.41;;;14.40;69.94
41531;BME280;58990;46.284;13.126;2022-09-24T07:02:30;99460.94;;;14.35;70.67
41531;BME280;58990;46.284;13.126;2022-09-24T07:04:56;99465.00;;;14.38;70.56
41531;BME280;58990;46.284;13.126;2022-09-24T07:07:21;99458.88;;;14.37;71.56
41531;BME280;58990;46.284;13.126;2022-09-24T07:09:53;99463.78;;;14.40;71.94
41531;BME280;58990;46.284;13.126;2022-09-24T07:12:19;99457.31;;;14.50;72.70
41531;BME280;58990;46.284;13.126;2022-09-24T07:14:44;99461.38;;;14.52;72.68
41531;BME280;58990;46.284;13.126;2022-09-24T07:17:09;99469.09;;;14.54;72.83
41531;BME280;58990;46.284;13.126;2022-09-24T07:19:35;99471.13;;;14.58;72.21
41531;BME280;58990;46.284;13.126;2022-09-24T07:22:00;99473.59;;;14.67;71.95
41531;BME280;58990;46.284;13.126;2022-09-24T07:24:26;99478.06;;;14.66;72.20
41531;BME280;58990;46.284;13.126;2022-09-24T07:26:51;99476.88;;;14.69;71.28
41531;BME280;58990;46.284;13.126;2022-09-24T07:29:16;99474.81;;;14.77;71.59
41531;BME280;58990;46.284;13.126;2022-09-24T07:31:42;99479.31;;;14.84;71.33
41531;BME280;58990;46.284;13.126;2022-09-24T07:34:08;99478.69;;;14.88;69.91
41531;BME280;58990;46.284;13.126;2022-09-24T07:36:33;99482.53;;;14.92;69.79
41531;BME280;58990;46.284;13.126;2022-09-24T07:38:59;99484.97;;;15.01;69.32
41531;BME280;58990;46.284;13.126;2022-09-24T07:41:25;99486.81;;;15.07;68.59
41531;BME280;58990;46.284;13.126;2022-09-24T07:43:51;99485.81;;;15.14;68.50
41531;BME280;58990;46.284;13.126;2022-09-24T07:46:16;99480.31;;;15.23;67.94
41531;BME280;58990;46.284;13.126;2022-09-24T07:48:42;99493.91;;;15.33;67.25
41531;BME280;58990;46.284;13.126;2022-09-24T07:51:10;99477.44;;;15.38;67.25
41531;BME280;58990;46.284;13.126;2022-09-24T07:53:36;99486.16;;;15.45;67.11
41531;BME280;58990;46.284;13.126;2022-09-24T07:56:02;99481.84;;;15.57;65.87
41531;BME280;58990;46.284;13.126;2022-09-24T07:58:29;99477.97;;;15.60;66.80
41531;BME280;58990;46.284;13.126;2022-09-24T08:00:59;99471.09;;;15.52;67.08
41531;BME280;58990;46.284;13.126;2022-09-24T08:03:25;99470.66;;;15.62;66.06
41531;BME280;58990;46.284;13.126;2022-09-24T08:05:50;99482.22;;;15.74;66.51
41531;BME280;58990;46.284;13.126;2022-09-24T08:08:20;99481.22;;;15.82;65.85
41531;BME280;58990;46.284;13.126;2022-09-24T08:10:46;99475.88;;;15.89;65.06
41531;BME280;58990;46.284;13.126;2022-09-24T08:13:11;99470.94;;;15.99;64.74
41531;BME280;58990;46.284;13.126;2022-09-24T08:15:37;99477.88;;;16.00;64.39
41531;BME280;58990;46.284;13.126;2022-09-24T08:18:03;99482.91;;;16.08;63.35
41531;BME280;58990;46.284;13.126;2022-09-24T08:20:30;99484.34;;;16.11;63.17
41531;BME280;58990;46.284;13.126;2022-09-24T08:23:03;99479.44;;;16.14;64.59
41531;BME280;58990;46.284;13.126;2022-09-24T08:25:29;99485.38;;;16.03;64.76
41531;BME280;58990;46.284;13.126;2022-09-24T08:28:00;99480.88;;;16.10;64.72
41531;BME280;58990;46.284;13.126;2022-09-24T08:30:26;99469.03;;;16.20;64.75
41531;BME280;58990;46.284;13.126;2022-09-24T08:32:51;99482.00;;;16.28;64.11
41531;BME280;58990;46.284;13.126;2022-09-24T08:35:17;99474.00;;;16.41;63.90
41531;BME280;58990;46.284;13.126;2022-09-24T08:37:42;99471.13;;;16.43;63.59
41531;BME280;58990;46.284;13.126;2022-09-24T08:40:16;99474.47;;;16.57;62.40
41531;BME280;58990;46.284;13.126;2022-09-24T08:45:48;99475.75;;;16.79;59.52
41531;BME280;58990;46.284;13.126;2022-09-24T08:48:38;99474.28;;;16.84;59.54
41531;BME280;58990;46.284;13.126;2022-09-24T08:51:10;99470.41;;;16.86;57.30
41531;BME280;58990;46.284;13.126;2022-09-24T08:56:29;99472.66;;;16.82;56.82
41531;BME280;58990;46.284;13.126;2022-09-24T09:01:46;99465.69;;;16.88;58.06
41531;BME280;58990;46.284;13.126;2022-09-24T09:09:47;99464.59;;;16.71;60.03
41531;BME280;58990;46.284;13.126;2022-09-24T09:12:20;99471.34;;;16.67;57.32
41531;BME280;58990;46.284;13.126;2022-09-24T09:20:17;99469.63;;;16.54;60.13
41531;BME280;58990;46.284;13.126;2022-09-24T09:22:48;99469.56;;;16.60;59.78
41531;BME280;58990;46.284;13.126;2022-09-24T09:28:13;99469.28;;;16.43;60.12
41531;BME280;58990;46.284;13.126;2022-09-24T09:30:52;99474.75;;;16.48;60.02
41531;BME280;58990;46.284;13.126;2022-09-24T09:41:48;99468.06;;;16.71;59.94
41531;BME280;58990;46.284;13.126;2022-09-24T09:47:28;99470.44;;;16.79;57.88
41531;BME280;58990;46.284;13.126;2022-09-24T09:50:05;99461.69;;;16.79;57.56
41531;BME280;58990;46.284;13.126;2022-09-24T09:52:33;99464.28;;;16.86;57.62
41531;BME280;58990;46.284;13.126;2022-09-24T09:55:00;99452.84;;;16.92;56.39
41531;BME280;58990;46.284;13.126;2022-09-24T09:57:30;99451.25;;;17.09;54.37
41531;BME280;58990;46.284;13.126;2022-09-24T09:59:56;99455.81;;;17.21;53.81
41531;BME280;58990;46.284;13.126;2022-09-24T10:02:26;99456.16;;;17.31;53.94
41531;BME280;58990;46.284;13.126;2022-09-24T10:04:55;99461.00;;;17.34;54.43
41531;BME280;58990;46.284;13.126;2022-09-24T10:07:22;99460.59;;;17.37;52.04
41531;BME280;58990;46.284;13.126;2022-09-24T10:09:58;99461.09;;;17.46;53.71
41531;BME280;58990;46.284;13.126;2022-09-24T10:12:26;99460.06;;;17.47;53.43
41531;BME280;58990;46.284;13.126;2022-09-24T10:15:04;99453.06;;;17.53;53.57
41531;BME280;58990;46.284;13.126;2022-09-24T10:17:40;99447.22;;;17.62;52.22
41531;BME280;58990;46.284;13.126;2022-09-24T10:20:13;99448.34;;;17.55;53.46
41531;BME280;58990;46.284;13.126;2022-09-24T10:22:46;99454.63;;;17.60;52.58
41531;BME280;58990;46.284;13.126;2022-09-24T10:25:25;99457.91;;;17.56;52.77
41531;BME280;58990;46.284;13.126;2022-09-24T10:27:52;99462.13;;;17.45;53.50
41531;BME280;58990;46.284;13.126;2022-09-24T10:30:19;99461.25;;;17.51;53.19
41531;BME280;58990;46.284;13.126;2022-09-24T10:33:00;99464.31;;;17.66;53.36
41531;BME280;58990;46.284;13.126;2022-09-24T10:38:15;99465.78;;;17.81;54.10
41531;BME280;58990;46.284;13.126;2022-09-24T10:40:42;99463.66;;;17.71;53.82
41531;BME280;58990;46.284;13.126;2022-09-24T10:43:18;99461.31;;;17.63;53.51
41531;BME280;58990;46.284;13.126;2022-09-24T10:48:43;99461.09;;;17.83;52.67
41531;BME280;58990;46.284;13.126;2022-09-24T10:56:42;99451.13;;;17.78;54.50
41531;BME280;58990;46.284;13.126;2022-09-24T11:04:54;99445.22;;;17.95;53.73
41531;BME280;58990;46.284;13.126;2022-09-24T11:19:00;99443.00;;;18.10;51.54
41531;BME280;58990;46.284;13.126;2022-09-24T11:33:06;99420.69;;;17.62;54.19
41531;BME280;58990;46.284;13.126;2022-09-24T11:36:12;99424.56;;;17.48;54.24
41531;BME280;58990;46.284;13.126;2022-09-24T11:41:41;99435.22;;;17.41;53.80
41531;BME280;58990;46.284;13.126;2022-09-24T11:46:59;99434.63;;;17.21;55.42
41531;BME280;58990;46.284;13.126;2022-09-24T11:49:45;99433.88;;;17.13;56.04
41531;BME280;58990;46.284;13.126;2022-09-24T11:52:24;99431.50;;;17.05;55.97
41531;BME280;58990;46.284;13.126;2022-09-24T12:00:55;99407.34;;;17.13;54.53
41531;BME280;58990;46.284;13.126;2022-09-24T12:03:34;99402.50;;;17.10;56.12
41531;BME280;58990;46.284;13.126;2022-09-24T12:06:06;99401.59;;;17.17;57.13
41531;BME280;58990;46.284;13.126;2022-09-24T12:11:35;99392.63;;;17.18;57.66
41531;BME280;58990;46.284;13.126;2022-09-24T12:14:13;99380.84;;;17.13;55.52
41531;BME280;58990;46.284;13.126;2022-09-24T12:16:42;99381.16;;;17.24;56.09
41531;BME280;58990;46.284;13.126;2022-09-24T12:19:17;99385.06;;;17.21;55.37
41531;BME280;58990;46.284;13.126;2022-09-24T12:21:46;99376.28;;;17.21;56.50
41531;BME280;58990;46.284;13.126;2022-09-24T12:24:19;99374.38;;;17.28;55.78
41531;BME280;58990;46.284;13.126;2022-09-24T12:26:48;99372.75;;;17.27;55.45
41531;BME280;58990;46.284;13.126;2022-09-24T12:32:00;99366.72;;;17.20;58.29
41531;BME280;58990;46.284;13.126;2022-09-24T12:34:58;99355.88;;;17.21;57.34
41531;BME280;58990;46.284;13.126;2022-09-24T12:37:30;99361.72;;;17.11;57.35
41531;BME280;58990;46.284;13.126;2022-09-24T12:42:51;99360.88;;;17.11;57.42
41531;BME280;58990;46.284;13.126;2022-09-24T12:45:21;99360.09;;;17.10;58.57
41531;BME280;58990;46.284;13.126;2022-09-24T12:47:51;99358.00;;;17.12;57.98
41531;BME280;58990;46.284;13.126;2022-09-24T12:50:23;99363.91;;;17.14;57.25
41531;BME280;58990;46.284;13.126;2022-09-24T12:52:50;99372.16;;;17.25;54.53
41531;BME280;58990;46.284;13.126;2022-09-24T12:55:25;99370.53;;;17.24;56.16
41531;BME280;58990;46.284;13.126;2022-09-24T12:57:57;99359.19;;;17.17;55.95
41531;BME280;58990;46.284;13.126;2022-09-24T13:00:44;99359.94;;;17.24;57.22
41531;BME280;58990;46.284;13.126;2022-09-24T13:03:33;99351.75;;;17.25;56.04
41531;BME280;58990;46.284;13.126;2022-09-24T13:05:59;99355.94;;;17.14;57.56
41531;BME280;58990;46.284;13.126;2022-09-24T13:08:34;99360.16;;;17.22;57.09
41531;BME280;58990;46.284;13.126;2022-09-24T13:11:02;99358.59;;;17.33;56.91
41531;BME280;58990;46.284;13.126;2022-09-24T13:13:32;99369.72;;;17.23;57.96
41531;BME280;58990;46.284;13.126;2022-09-24T13:16:04;99363.38;;;17.24;57.06
41531;BME280;58990;46.284;13.126;2022-09-24T13:18:32;99363.75;;;17.09;58.80
41531;BME280;58990;46.284;13.126;2022-09-24T13:21:05;99357.94;;;17.19;59.28
41531;BME280;58990;46.284;13.126;2022-09-24T13:23:42;99349.63;;;16.97;59.90
41531;BME280;58990;46.284;13.126;2022-09-24T13:26:13;99343.25;;;17.17;59.17
41531;BME280;58990;46.284;13.126;2022-09-24T13:34:27;99351.13;;;17.42;58.98
41531;BME280;58990;46.284;13.126;2022-09-24T13:55:38;99318.50;;;17.41;58.90
41531;BME280;58990;46.284;13.126;2022-09-24T13:58:04;99308.91;;;17.40;57.37
41531;BME280;58990;46.284;13.126;2022-09-24T14:00:30;99302.41;;;17.55;57.01
41531;BME280;58990;46.284;13.126;2022-09-24T14:03:19;99296.19;;;17.61;56.58
41531;BME280;58990;46.284;13.126;2022-09-24T14:05:49;99296.88;;;17.56;54.49
41531;BME280;58990;46.284;13.126;2022-09-24T14:08:17;99289.16;;;17.66;55.83
41531;BME280;58990;46.284;13.126;2022-09-24T14:10:45;99283.88;;;17.78;55.26
41531;BME280;58990;46.284;13.126;2022-09-24T14:13:20;99287.91;;;17.69;55.99
41531;BME280;58990;46.284;13.126;2022-09-24T14:15:58;99279.00;;;17.63;57.28
41531;BME280;58990;46.284;13.126;2022-09-24T14:18:27;99275.75;;;17.49;57.71
41531;BME280;58990;46.284;13.126;2022-09-24T14:23:37;99284.16;;;17.46;57.22
41531;BME280;58990;46.284;13.126;2022-09-24T14:26:05;99285.50;;;17.37;59.23
41531;BME280;58990;46.284;13.126;2022-09-24T14:28:32;99282.25;;;17.35;60.84
41531;BME280;58990;46.284;13.126;2022-09-24T14:30:59;99279.53;;;17.23;60.96
41531;BME280;58990;46.284;13.126;2022-09-24T14:33:30;99280.69;;;17.15;61.84
41531;BME280;58990;46.284;13.126;2022-09-24T14:35:57;99289.50;;;17.09;60.87
41531;BME280;58990;46.284;13.126;2022-09-24T14:38:27;99292.38;;;17.08;61.33
41531;BME280;58990;46.284;13.126;2022-09-24T14:40:58;99299.81;;;16.99;62.63
41531;BME280;58990;46.284;13.126;2022-09-24T14:54:34;99302.16;;;16.89;65.86
41531;BME280;58990;46.284;13.126;2022-09-24T14:59:54;99306.59;;;16.76;67.61
41531;BME280;58990;46.284;13.126;2022-09-24T15:02:23;99307.97;;;16.60;65.71
41531;BME280;58990;46.284;13.126;2022-09-24T15:04:57;99310.84;;;16.59;66.44
41531;BME280;58990;46.284;13.126;2022-09-24T15:07:25;99306.50;;;16.64;65.48
41531;BME280;58990;46.284;13.126;2022-09-24T15:09:54;99304.94;;;16.57;66.03
41531;BME280;58990;46.284;13.126;2022-09-24T15:12:24;99310.03;;;16.33;64.44
41531;BME280;58990;46.284;13.126;2022-09-24T15:14:59;99305.31;;;16.35;65.61
41531;BME280;58990;46.284;13.126;2022-09-24T15:17:30;99304.16;;;16.31;66.65
41531;BME280;58990;46.284;13.126;2022-09-24T15:19:56;99306.56;;;16.33;66.11
41531;BME280;58990;46.284;13.126;2022-09-24T15:22:23;99312.69;;;16.33;66.06
41531;BME280;58990;46.284;13.126;2022-09-24T15:24:52;99313.50;;;16.34;66.90
41531;BME280;58990;46.284;13.126;2022-09-24T15:27:21;99312.38;;;16.23;65.39
41531;BME280;58990;46.284;13.126;2022-09-24T15:29:48;99306.03;;;16.24;65.78
41531;BME280;58990;46.284;13.126;2022-09-24T15:32:17;99304.69;;;16.14;65.95